Terminal Aerodrome Forecast
Issued by NWS Quad Cities IA IL

Home | Current Version | Previous Version | Text Only | Print | Product List | Glossary On
Versions: 1 2 3 4 5 6 7 8 9 10 11 12 13 14 15 16 17 18 19 20 21 22 23 24 25 26 27
898
FTUS43 KDVN 221959 AAA
TAFMLI
TAF AMD
KMLI 221959Z 2220/2318 32005KT P6SM SCT040 SCT250
     FM230300 VRB03KT P6SM SCT250
     FM231100 11004KT 3SM BR SCT030 SCT120
     FM231500 13006KT P6SM BKN100=

USA.gov is the U.S. government's official web portal to all federal, state and local government web resources and services.